sensor_id;sensor_type;location;lat;lon;timestamp;temperature;humidity
12901;DHT22;6518;50.930;5.344;2024-03-25T00:00:49;6.00;99.90
12901;DHT22;6518;50.930;5.344;2024-03-25T00:03:14;6.00;99.90
12901;DHT22;6518;50.930;5.344;2024-03-25T00:05:41;6.00;99.90
12901;DHT22;6518;50.930;5.344;2024-03-25T00:08:07;6.00;99.90
12901;DHT22;6518;50.930;5.344;2024-03-25T00:10:34;6.00;99.90
12901;DHT22;6518;50.930;5.344;2024-03-25T00:13:02;6.00;99.90
12901;DHT22;6518;50.930;5.344;2024-03-25T00:15:29;5.90;99.90
12901;DHT22;6518;50.930;5.344;2024-03-25T00:17:57;5.90;99.90
12901;DHT22;6518;50.930;5.344;2024-03-25T00:20:24;5.90;99.90
12901;DHT22;6518;50.930;5.344;2024-03-25T00:22:50;5.90;99.90
12901;DHT22;6518;50.930;5.344;2024-03-25T00:25:18;5.90;99.90
12901;DHT22;6518;50.930;5.344;2024-03-25T00:27:44;5.80;99.90
12901;DHT22;6518;50.930;5.344;2024-03-25T00:30:12;5.80;99.90
12901;DHT22;6518;50.930;5.344;2024-03-25T00:32:38;5.80;99.90
12901;DHT22;6518;50.930;5.344;2024-03-25T00:35:08;5.80;99.90
12901;DHT22;6518;50.930;5.344;2024-03-25T00:37:35;5.80;99.90
12901;DHT22;6518;50.930;5.344;2024-03-25T00:40:06;5.80;99.90
12901;DHT22;6518;50.930;5.344;2024-03-25T00:42:33;5.80;99.90
12901;DHT22;6518;50.930;5.344;2024-03-25T00:45:00;5.80;99.90
12901;DHT22;6518;50.930;5.344;2024-03-25T00:47:26;5.80;99.90
12901;DHT22;6518;50.930;5.344;2024-03-25T00:49:53;5.80;99.90
12901;DHT22;6518;50.930;5.344;2024-03-25T00:52:21;5.70;99.90
12901;DHT22;6518;50.930;5.344;2024-03-25T00:54:48;5.70;99.90
12901;DHT22;6518;50.930;5.344;2024-03-25T00:57:14;5.70;99.90
12901;DHT22;6518;50.930;5.344;2024-03-25T00:59:41;5.70;99.90
12901;DHT22;6518;50.930;5.344;2024-03-25T01:02:07;5.70;99.90
12901;DHT22;6518;50.930;5.344;2024-03-25T01:04:35;5.70;99.90
12901;DHT22;6518;50.930;5.344;2024-03-25T01:07:00;5.70;99.90
12901;DHT22;6518;50.930;5.344;2024-03-25T01:09:30;5.70;99.90
12901;DHT22;6518;50.930;5.344;2024-03-25T01:11:55;5.70;99.90
12901;DHT22;6518;50.930;5.344;2024-03-25T01:14:22;5.70;99.90
12901;DHT22;6518;50.930;5.344;2024-03-25T01:16:48;5.70;99.90
12901;DHT22;6518;50.930;5.344;2024-03-25T01:19:15;5.70;99.90
12901;DHT22;6518;50.930;5.344;2024-03-25T01:21:42;5.70;99.90
12901;DHT22;6518;50.930;5.344;2024-03-25T01:24:09;5.70;99.90
12901;DHT22;6518;50.930;5.344;2024-03-25T01:26:37;5.70;99.90
12901;DHT22;6518;50.930;5.344;2024-03-25T01:29:04;5.70;99.90
12901;DHT22;6518;50.930;5.344;2024-03-25T01:31:30;5.70;99.90
12901;DHT22;6518;50.930;5.344;2024-03-25T01:33:57;5.70;99.90
12901;DHT22;6518;50.930;5.344;2024-03-25T01:36:23;5.70;99.90
12901;DHT22;6518;50.930;5.344;2024-03-25T01:38:51;5.70;99.90
12901;DHT22;6518;50.930;5.344;2024-03-25T01:41:20;5.60;99.90
12901;DHT22;6518;50.930;5.344;2024-03-25T01:43:49;5.60;99.90
12901;DHT22;6518;50.930;5.344;2024-03-25T01:46:16;5.60;99.90
12901;DHT22;6518;50.930;5.344;2024-03-25T01:48:44;5.60;99.90
12901;DHT22;6518;50.930;5.344;2024-03-25T01:51:11;5.60;99.90
12901;DHT22;6518;50.930;5.344;2024-03-25T01:53:40;5.60;99.90
12901;DHT22;6518;50.930;5.344;2024-03-25T01:56:06;5.60;99.90
12901;DHT22;6518;50.930;5.344;2024-03-25T01:58:34;5.60;99.90
12901;DHT22;6518;50.930;5.344;2024-03-25T02:01:01;5.50;99.90
12901;DHT22;6518;50.930;5.344;2024-03-25T02:03:29;5.50;99.90
12901;DHT22;6518;50.930;5.344;2024-03-25T02:05:57;5.50;99.90
12901;DHT22;6518;50.930;5.344;2024-03-25T02:08:26;5.50;99.90
12901;DHT22;6518;50.930;5.344;2024-03-25T02:10:53;5.50;99.90
12901;DHT22;6518;50.930;5.344;2024-03-25T02:13:21;5.40;99.90
12901;DHT22;6518;50.930;5.344;2024-03-25T02:15:47;5.50;99.90
12901;DHT22;6518;50.930;5.344;2024-03-25T02:18:18;5.40;99.90
12901;DHT22;6518;50.930;5.344;2024-03-25T02:20:44;5.40;99.90
12901;DHT22;6518;50.930;5.344;2024-03-25T02:23:12;5.40;99.90
12901;DHT22;6518;50.930;5.344;2024-03-25T02:25:39;5.40;99.90
12901;DHT22;6518;50.930;5.344;2024-03-25T02:28:09;5.40;99.90
12901;DHT22;6518;50.930;5.344;2024-03-25T02:30:35;5.40;99.90
12901;DHT22;6518;50.930;5.344;2024-03-25T02:33:04;5.40;99.90
12901;DHT22;6518;50.930;5.344;2024-03-25T02:35:30;5.40;99.90
12901;DHT22;6518;50.930;5.344;2024-03-25T02:37:57;5.30;99.90
12901;DHT22;6518;50.930;5.344;2024-03-25T02:40:23;5.30;99.90
12901;DHT22;6518;50.930;5.344;2024-03-25T02:42:52;5.30;99.90
12901;DHT22;6518;50.930;5.344;2024-03-25T02:45:19;5.30;99.90
12901;DHT22;6518;50.930;5.344;2024-03-25T02:47:46;5.30;99.90
12901;DHT22;6518;50.930;5.344;2024-03-25T02:50:12;5.30;99.90
12901;DHT22;6518;50.930;5.344;2024-03-25T02:52:39;5.30;99.90
12901;DHT22;6518;50.930;5.344;2024-03-25T02:55:06;5.20;99.90
12901;DHT22;6518;50.930;5.344;2024-03-25T02:57:33;5.20;99.90
12901;DHT22;6518;50.930;5.344;2024-03-25T02:59:59;5.20;99.90
12901;DHT22;6518;50.930;5.344;2024-03-25T03:02:27;5.20;99.90
12901;DHT22;6518;50.930;5.344;2024-03-25T03:04:53;5.10;99.90
12901;DHT22;6518;50.930;5.344;2024-03-25T03:07:20;5.10;99.90
12901;DHT22;6518;50.930;5.344;2024-03-25T03:09:48;5.10;99.90
12901;DHT22;6518;50.930;5.344;2024-03-25T03:12:15;5.10;99.90
12901;DHT22;6518;50.930;5.344;2024-03-25T03:14:41;5.00;99.90
12901;DHT22;6518;50.930;5.344;2024-03-25T03:17:08;5.00;99.90
12901;DHT22;6518;50.930;5.344;2024-03-25T03:19:38;5.00;99.90
12901;DHT22;6518;50.930;5.344;2024-03-25T03:22:05;5.00;99.90
12901;DHT22;6518;50.930;5.344;2024-03-25T03:24:33;5.00;99.90
12901;DHT22;6518;50.930;5.344;2024-03-25T03:27:00;5.00;99.90
12901;DHT22;6518;50.930;5.344;2024-03-25T03:29:26;5.00;99.90
12901;DHT22;6518;50.930;5.344;2024-03-25T03:31:54;5.00;99.90
12901;DHT22;6518;50.930;5.344;2024-03-25T03:34:20;5.00;99.90
12901;DHT22;6518;50.930;5.344;2024-03-25T03:36:49;5.00;99.90
12901;DHT22;6518;50.930;5.344;2024-03-25T03:39:15;5.00;99.90
12901;DHT22;6518;50.930;5.344;2024-03-25T03:41:43;4.90;99.90
12901;DHT22;6518;50.930;5.344;2024-03-25T03:44:09;4.90;99.90
12901;DHT22;6518;50.930;5.344;2024-03-25T03:46:36;4.90;99.90
12901;DHT22;6518;50.930;5.344;2024-03-25T03:49:02;4.80;99.90
12901;DHT22;6518;50.930;5.344;2024-03-25T03:51:28;4.90;99.90
12901;DHT22;6518;50.930;5.344;2024-03-25T03:53:56;4.90;99.90
12901;DHT22;6518;50.930;5.344;2024-03-25T03:56:23;4.90;99.90
12901;DHT22;6518;50.930;5.344;2024-03-25T03:58:49;4.80;99.90
12901;DHT22;6518;50.930;5.344;2024-03-25T04:01:16;4.80;99.90
12901;DHT22;6518;50.930;5.344;2024-03-25T04:03:42;4.80;99.90
12901;DHT22;6518;50.930;5.344;2024-03-25T04:06:10;4.80;99.90
12901;DHT22;6518;50.930;5.344;2024-03-25T04:08:36;4.80;99.90
12901;DHT22;6518;50.930;5.344;2024-03-25T04:11:07;4.80;99.90
12901;DHT22;6518;50.930;5.344;2024-03-25T04:13:33;4.80;99.90
12901;DHT22;6518;50.930;5.344;2024-03-25T04:16:04;4.80;99.90
12901;DHT22;6518;50.930;5.344;2024-03-25T04:18:31;4.70;99.90
12901;DHT22;6518;50.930;5.344;2024-03-25T04:20:58;4.70;99.90
12901;DHT22;6518;50.930;5.344;2024-03-25T04:23:25;4.70;99.90
12901;DHT22;6518;50.930;5.344;2024-03-25T04:25:52;4.60;99.90
12901;DHT22;6518;50.930;5.344;2024-03-25T04:28:19;4.60;99.90
12901;DHT22;6518;50.930;5.344;2024-03-25T04:30:51;4.60;99.90
12901;DHT22;6518;50.930;5.344;2024-03-25T04:33:17;4.60;99.90
12901;DHT22;6518;50.930;5.344;2024-03-25T04:35:45;4.60;99.90
12901;DHT22;6518;50.930;5.344;2024-03-25T04:38:15;4.60;99.90
12901;DHT22;6518;50.930;5.344;2024-03-25T04:40:41;4.60;99.90
12901;DHT22;6518;50.930;5.344;2024-03-25T04:43:09;4.60;99.90
12901;DHT22;6518;50.930;5.344;2024-03-25T04:45:37;4.60;99.90
12901;DHT22;6518;50.930;5.344;2024-03-25T04:48:04;4.60;99.90
12901;DHT22;6518;50.930;5.344;2024-03-25T04:50:31;4.60;99.90
12901;DHT22;6518;50.930;5.344;2024-03-25T04:52:58;4.50;99.90
12901;DHT22;6518;50.930;5.344;2024-03-25T04:55:24;4.60;99.90
12901;DHT22;6518;50.930;5.344;2024-03-25T04:57:50;4.50;99.90
12901;DHT22;6518;50.930;5.344;2024-03-25T05:00:16;4.50;99.90
12901;DHT22;6518;50.930;5.344;2024-03-25T05:02:45;4.50;99.90
12901;DHT22;6518;50.930;5.344;2024-03-25T05:05:13;4.50;99.90
12901;DHT22;6518;50.930;5.344;2024-03-25T05:07:39;4.50;99.90
12901;DHT22;6518;50.930;5.344;2024-03-25T05:10:06;4.50;99.90
12901;DHT22;6518;50.930;5.344;2024-03-25T05:12:32;4.50;99.90
12901;DHT22;6518;50.930;5.344;2024-03-25T05:14:58;4.50;99.90
12901;DHT22;6518;50.930;5.344;2024-03-25T05:17:24;4.50;99.90
12901;DHT22;6518;50.930;5.344;2024-03-25T05:19:51;4.50;99.90
12901;DHT22;6518;50.930;5.344;2024-03-25T05:22:17;4.50;99.90
12901;DHT22;6518;50.930;5.344;2024-03-25T05:24:43;4.50;99.90
12901;DHT22;6518;50.930;5.344;2024-03-25T05:27:09;4.60;99.90
12901;DHT22;6518;50.930;5.344;2024-03-25T05:29:35;4.60;99.90
12901;DHT22;6518;50.930;5.344;2024-03-25T05:32:01;4.60;99.90
12901;DHT22;6518;50.930;5.344;2024-03-25T05:34:28;4.60;99.90
12901;DHT22;6518;50.930;5.344;2024-03-25T05:36:56;4.90;99.90
12901;DHT22;6518;50.930;5.344;2024-03-25T05:39:22;4.60;99.90
12901;DHT22;6518;50.930;5.344;2024-03-25T05:41:48;4.60;99.90
12901;DHT22;6518;50.930;5.344;2024-03-25T05:44:14;4.60;99.90
12901;DHT22;6518;50.930;5.344;2024-03-25T05:46:40;4.70;99.90
12901;DHT22;6518;50.930;5.344;2024-03-25T05:49:06;4.70;99.90
12901;DHT22;6518;50.930;5.344;2024-03-25T05:51:33;4.70;99.90
12901;DHT22;6518;50.930;5.344;2024-03-25T05:54:00;4.70;99.90
12901;DHT22;6518;50.930;5.344;2024-03-25T05:56:26;4.70;99.90
12901;DHT22;6518;50.930;5.344;2024-03-25T05:58:53;4.70;99.90
12901;DHT22;6518;50.930;5.344;2024-03-25T06:01:19;4.80;99.90
12901;DHT22;6518;50.930;5.344;2024-03-25T06:03:44;4.80;99.90
12901;DHT22;6518;50.930;5.344;2024-03-25T06:06:10;4.80;99.90
12901;DHT22;6518;50.930;5.344;2024-03-25T06:08:36;4.90;99.90
12901;DHT22;6518;50.930;5.344;2024-03-25T06:11:04;5.00;99.90
12901;DHT22;6518;50.930;5.344;2024-03-25T06:13:31;5.00;99.90
12901;DHT22;6518;50.930;5.344;2024-03-25T06:15:57;5.10;99.90
12901;DHT22;6518;50.930;5.344;2024-03-25T06:18:23;5.20;99.90
12901;DHT22;6518;50.930;5.344;2024-03-25T06:20:49;5.20;99.90
12901;DHT22;6518;50.930;5.344;2024-03-25T06:23:24;5.40;99.90
12901;DHT22;6518;50.930;5.344;2024-03-25T06:25:51;5.40;99.90
12901;DHT22;6518;50.930;5.344;2024-03-25T06:28:18;5.50;99.90
12901;DHT22;6518;50.930;5.344;2024-03-25T06:30:45;5.60;99.90
12901;DHT22;6518;50.930;5.344;2024-03-25T06:33:29;5.70;99.90
12901;DHT22;6518;50.930;5.344;2024-03-25T06:36:13;5.80;99.90
12901;DHT22;6518;50.930;5.344;2024-03-25T06:38:39;5.90;99.90
12901;DHT22;6518;50.930;5.344;2024-03-25T06:41:05;6.00;99.90
12901;DHT22;6518;50.930;5.344;2024-03-25T06:43:33;6.10;99.90
12901;DHT22;6518;50.930;5.344;2024-03-25T06:45:59;6.10;99.90
12901;DHT22;6518;50.930;5.344;2024-03-25T06:48:25;6.20;99.90
12901;DHT22;6518;50.930;5.344;2024-03-25T06:50:54;6.30;99.90
12901;DHT22;6518;50.930;5.344;2024-03-25T06:53:21;6.30;99.90
12901;DHT22;6518;50.930;5.344;2024-03-25T06:55:54;6.40;99.90
12901;DHT22;6518;50.930;5.344;2024-03-25T06:58:21;6.40;99.90
12901;DHT22;6518;50.930;5.344;2024-03-25T07:00:48;6.50;99.90
12901;DHT22;6518;50.930;5.344;2024-03-25T07:03:15;6.60;99.90
12901;DHT22;6518;50.930;5.344;2024-03-25T07:05:41;6.60;99.90
12901;DHT22;6518;50.930;5.344;2024-03-25T07:08:09;6.70;99.90
12901;DHT22;6518;50.930;5.344;2024-03-25T07:10:35;6.70;99.90
12901;DHT22;6518;50.930;5.344;2024-03-25T07:13:01;6.80;99.90
12901;DHT22;6518;50.930;5.344;2024-03-25T07:15:27;6.80;99.90
12901;DHT22;6518;50.930;5.344;2024-03-25T07:17:55;6.80;99.90
12901;DHT22;6518;50.930;5.344;2024-03-25T07:20:21;6.90;99.90
12901;DHT22;6518;50.930;5.344;2024-03-25T07:22:47;6.90;99.90
12901;DHT22;6518;50.930;5.344;2024-03-25T07:25:13;6.90;99.90
12901;DHT22;6518;50.930;5.344;2024-03-25T07:27:39;6.90;99.90
12901;DHT22;6518;50.930;5.344;2024-03-25T07:30:06;7.00;99.90
12901;DHT22;6518;50.930;5.344;2024-03-25T07:32:32;7.00;99.90
12901;DHT22;6518;50.930;5.344;2024-03-25T07:34:59;7.10;99.90
12901;DHT22;6518;50.930;5.344;2024-03-25T07:37:25;7.20;99.90
12901;DHT22;6518;50.930;5.344;2024-03-25T07:39:51;7.30;99.90
12901;DHT22;6518;50.930;5.344;2024-03-25T07:42:17;7.30;99.90
12901;DHT22;6518;50.930;5.344;2024-03-25T07:44:43;7.40;99.90
12901;DHT22;6518;50.930;5.344;2024-03-25T07:47:09;7.40;99.90
12901;DHT22;6518;50.930;5.344;2024-03-25T07:49:35;7.50;99.90
12901;DHT22;6518;50.930;5.344;2024-03-25T07:52:05;7.60;99.90
12901;DHT22;6518;50.930;5.344;2024-03-25T07:54:31;7.60;99.90
12901;DHT22;6518;50.930;5.344;2024-03-25T07:56:57;7.70;99.90
12901;DHT22;6518;50.930;5.344;2024-03-25T07:59:23;7.70;99.90
12901;DHT22;6518;50.930;5.344;2024-03-25T08:01:50;7.80;99.90
12901;DHT22;6518;50.930;5.344;2024-03-25T08:04:16;7.80;99.90
12901;DHT22;6518;50.930;5.344;2024-03-25T08:06:42;7.90;99.90
12901;DHT22;6518;50.930;5.344;2024-03-25T08:09:09;7.90;99.90
12901;DHT22;6518;50.930;5.344;2024-03-25T08:11:35;8.00;99.90
12901;DHT22;6518;50.930;5.344;2024-03-25T08:14:02;8.00;99.90
12901;DHT22;6518;50.930;5.344;2024-03-25T08:16:28;8.10;99.90
12901;DHT22;6518;50.930;5.344;2024-03-25T08:18:54;8.20;99.90
12901;DHT22;6518;50.930;5.344;2024-03-25T08:21:20;8.20;99.90
12901;DHT22;6518;50.930;5.344;2024-03-25T08:23:46;8.30;99.90
12901;DHT22;6518;50.930;5.344;2024-03-25T08:26:14;8.30;99.90
12901;DHT22;6518;50.930;5.344;2024-03-25T08:28:40;8.40;99.90
12901;DHT22;6518;50.930;5.344;2024-03-25T08:31:06;8.40;99.90
12901;DHT22;6518;50.930;5.344;2024-03-25T08:33:34;8.50;99.90
12901;DHT22;6518;50.930;5.344;2024-03-25T08:36:00;8.50;99.90
12901;DHT22;6518;50.930;5.344;2024-03-25T08:38:26;8.60;99.90
12901;DHT22;6518;50.930;5.344;2024-03-25T08:40:52;8.60;99.90
12901;DHT22;6518;50.930;5.344;2024-03-25T08:43:19;8.60;99.90
12901;DHT22;6518;50.930;5.344;2024-03-25T08:45:45;8.60;99.90
12901;DHT22;6518;50.930;5.344;2024-03-25T08:48:12;8.70;99.90
12901;DHT22;6518;50.930;5.344;2024-03-25T08:50:39;8.70;99.90
12901;DHT22;6518;50.930;5.344;2024-03-25T08:53:06;8.70;99.90
12901;DHT22;6518;50.930;5.344;2024-03-25T08:55:32;8.70;99.90
12901;DHT22;6518;50.930;5.344;2024-03-25T08:57:58;8.80;99.90
12901;DHT22;6518;50.930;5.344;2024-03-25T09:00:26;8.80;99.90
12901;DHT22;6518;50.930;5.344;2024-03-25T09:02:52;8.90;99.90
12901;DHT22;6518;50.930;5.344;2024-03-25T09:05:18;9.00;99.90
12901;DHT22;6518;50.930;5.344;2024-03-25T09:07:44;9.10;99.90
12901;DHT22;6518;50.930;5.344;2024-03-25T09:10:10;9.10;99.90
12901;DHT22;6518;50.930;5.344;2024-03-25T09:12:55;9.20;99.90
12901;DHT22;6518;50.930;5.344;2024-03-25T09:15:21;9.30;99.90
12901;DHT22;6518;50.930;5.344;2024-03-25T09:17:48;9.30;99.90
12901;DHT22;6518;50.930;5.344;2024-03-25T09:20:15;9.40;99.90
12901;DHT22;6518;50.930;5.344;2024-03-25T09:22:42;9.40;99.90
12901;DHT22;6518;50.930;5.344;2024-03-25T09:25:09;9.50;99.90
12901;DHT22;6518;50.930;5.344;2024-03-25T09:27:36;9.60;99.90
12901;DHT22;6518;50.930;5.344;2024-03-25T09:30:04;9.70;99.90
12901;DHT22;6518;50.930;5.344;2024-03-25T09:32:31;9.80;99.90
12901;DHT22;6518;50.930;5.344;2024-03-25T09:34:58;9.90;99.90
12901;DHT22;6518;50.930;5.344;2024-03-25T09:37:25;10.00;99.90
12901;DHT22;6518;50.930;5.344;2024-03-25T09:39:51;10.10;99.90
12901;DHT22;6518;50.930;5.344;2024-03-25T09:42:25;10.10;99.90
12901;DHT22;6518;50.930;5.344;2024-03-25T09:44:52;10.20;99.90
12901;DHT22;6518;50.930;5.344;2024-03-25T09:47:19;10.30;99.90
12901;DHT22;6518;50.930;5.344;2024-03-25T09:49:45;10.30;99.90
12901;DHT22;6518;50.930;5.344;2024-03-25T09:52:15;10.30;99.90
12901;DHT22;6518;50.930;5.344;2024-03-25T09:54:41;10.40;99.90
12901;DHT22;6518;50.930;5.344;2024-03-25T09:57:08;10.40;99.90
12901;DHT22;6518;50.930;5.344;2024-03-25T09:59:34;10.50;99.90
12901;DHT22;6518;50.930;5.344;2024-03-25T10:02:01;10.60;99.90
12901;DHT22;6518;50.930;5.344;2024-03-25T10:04:27;10.70;99.90
12901;DHT22;6518;50.930;5.344;2024-03-25T10:06:53;10.80;99.90
12901;DHT22;6518;50.930;5.344;2024-03-25T10:09:21;10.80;99.90
12901;DHT22;6518;50.930;5.344;2024-03-25T10:11:47;10.80;99.90
12901;DHT22;6518;50.930;5.344;2024-03-25T10:14:15;10.80;99.50
12901;DHT22;6518;50.930;5.344;2024-03-25T10:16:41;10.90;99.30
12901;DHT22;6518;50.930;5.344;2024-03-25T10:19:07;10.80;96.70
12901;DHT22;6518;50.930;5.344;2024-03-25T10:21:33;10.90;96.90
12901;DHT22;6518;50.930;5.344;2024-03-25T10:23:59;10.80;94.90
12901;DHT22;6518;50.930;5.344;2024-03-25T10:26:28;10.90;94.80
12901;DHT22;6518;50.930;5.344;2024-03-25T10:29:01;10.90;92.80
12901;DHT22;6518;50.930;5.344;2024-03-25T10:31:27;10.90;92.90
12901;DHT22;6518;50.930;5.344;2024-03-25T10:33:53;11.00;93.50
12901;DHT22;6518;50.930;5.344;2024-03-25T10:36:21;10.90;93.40
12901;DHT22;6518;50.930;5.344;2024-03-25T10:38:49;11.10;92.50
12901;DHT22;6518;50.930;5.344;2024-03-25T10:41:17;11.20;93.20
12901;DHT22;6518;50.930;5.344;2024-03-25T10:43:46;11.20;91.70
12901;DHT22;6518;50.930;5.344;2024-03-25T10:46:16;11.20;91.10
12901;DHT22;6518;50.930;5.344;2024-03-25T10:48:47;11.30;91.20
12901;DHT22;6518;50.930;5.344;2024-03-25T10:51:13;11.20;88.20
12901;DHT22;6518;50.930;5.344;2024-03-25T10:53:41;11.30;90.70
12901;DHT22;6518;50.930;5.344;2024-03-25T10:56:08;11.30;90.50
12901;DHT22;6518;50.930;5.344;2024-03-25T10:58:36;11.40;90.10
12901;DHT22;6518;50.930;5.344;2024-03-25T11:01:07;11.40;88.30
12901;DHT22;6518;50.930;5.344;2024-03-25T11:03:34;11.40;87.10
12901;DHT22;6518;50.930;5.344;2024-03-25T11:06:01;11.50;88.90
12901;DHT22;6518;50.930;5.344;2024-03-25T11:08:31;11.50;87.70
12901;DHT22;6518;50.930;5.344;2024-03-25T11:10:57;11.60;88.20
12901;DHT22;6518;50.930;5.344;2024-03-25T11:13:23;11.70;88.60
12901;DHT22;6518;50.930;5.344;2024-03-25T11:15:49;11.70;87.70
12901;DHT22;6518;50.930;5.344;2024-03-25T11:18:18;11.70;87.80
12901;DHT22;6518;50.930;5.344;2024-03-25T11:20:47;11.80;85.50
12901;DHT22;6518;50.930;5.344;2024-03-25T11:23:14;11.80;84.00
12901;DHT22;6518;50.930;5.344;2024-03-25T11:25:41;11.80;79.10
12901;DHT22;6518;50.930;5.344;2024-03-25T11:28:09;11.80;81.10
12901;DHT22;6518;50.930;5.344;2024-03-25T11:30:36;11.90;81.00
12901;DHT22;6518;50.930;5.344;2024-03-25T11:33:03;11.90;79.40
12901;DHT22;6518;50.930;5.344;2024-03-25T11:35:37;12.00;76.00
12901;DHT22;6518;50.930;5.344;2024-03-25T11:38:03;12.10;74.90
12901;DHT22;6518;50.930;5.344;2024-03-25T11:40:29;12.10;76.90
12901;DHT22;6518;50.930;5.344;2024-03-25T11:42:56;12.10;75.00
12901;DHT22;6518;50.930;5.344;2024-03-25T11:45:22;12.20;76.60
12901;DHT22;6518;50.930;5.344;2024-03-25T11:47:48;12.40;74.10
12901;DHT22;6518;50.930;5.344;2024-03-25T11:50:16;12.50;73.00
12901;DHT22;6518;50.930;5.344;2024-03-25T11:52:44;12.60;72.00
12901;DHT22;6518;50.930;5.344;2024-03-25T11:55:10;12.70;69.70
12901;DHT22;6518;50.930;5.344;2024-03-25T11:57:37;12.70;70.20
12901;DHT22;6518;50.930;5.344;2024-03-25T12:00:04;12.60;67.40
12901;DHT22;6518;50.930;5.344;2024-03-25T12:02:30;12.50;65.10
12901;DHT22;6518;50.930;5.344;2024-03-25T12:04:56;12.40;64.70
12901;DHT22;6518;50.930;5.344;2024-03-25T12:07:23;12.30;67.20
12901;DHT22;6518;50.930;5.344;2024-03-25T12:09:50;12.30;65.20
12901;DHT22;6518;50.930;5.344;2024-03-25T12:12:34;12.40;67.70
12901;DHT22;6518;50.930;5.344;2024-03-25T12:15:00;12.50;67.80
12901;DHT22;6518;50.930;5.344;2024-03-25T12:17:29;12.50;67.80
12901;DHT22;6518;50.930;5.344;2024-03-25T12:19:59;12.50;66.80
12901;DHT22;6518;50.930;5.344;2024-03-25T12:22:25;12.60;66.60
12901;DHT22;6518;50.930;5.344;2024-03-25T12:24:53;12.60;65.80
12901;DHT22;6518;50.930;5.344;2024-03-25T12:27:22;12.60;67.60
12901;DHT22;6518;50.930;5.344;2024-03-25T12:29:57;12.60;67.50
12901;DHT22;6518;50.930;5.344;2024-03-25T12:32:31;12.60;67.60
12901;DHT22;6518;50.930;5.344;2024-03-25T12:34:58;12.70;67.30
12901;DHT22;6518;50.930;5.344;2024-03-25T12:37:26;12.80;66.90
12901;DHT22;6518;50.930;5.344;2024-03-25T12:39:53;12.80;67.50
12901;DHT22;6518;50.930;5.344;2024-03-25T12:42:19;12.90;67.90
12901;DHT22;6518;50.930;5.344;2024-03-25T12:44:45;13.10;67.70
12901;DHT22;6518;50.930;5.344;2024-03-25T12:47:11;13.20;66.20
12901;DHT22;6518;50.930;5.344;2024-03-25T12:49:37;13.30;61.00
12901;DHT22;6518;50.930;5.344;2024-03-25T12:52:05;13.40;62.90
12901;DHT22;6518;50.930;5.344;2024-03-25T12:54:31;13.50;64.20
12901;DHT22;6518;50.930;5.344;2024-03-25T12:56:59;13.50;63.40
12901;DHT22;6518;50.930;5.344;2024-03-25T12:59:25;13.50;63.20
12901;DHT22;6518;50.930;5.344;2024-03-25T13:01:51;13.50;63.10
12901;DHT22;6518;50.930;5.344;2024-03-25T13:04:18;13.50;62.00
12901;DHT22;6518;50.930;5.344;2024-03-25T13:06:44;13.50;61.70
12901;DHT22;6518;50.930;5.344;2024-03-25T13:09:09;13.40;59.30
12901;DHT22;6518;50.930;5.344;2024-03-25T13:11:36;13.30;59.10
12901;DHT22;6518;50.930;5.344;2024-03-25T13:14:04;13.20;60.50
12901;DHT22;6518;50.930;5.344;2024-03-25T13:16:31;13.20;60.30
12901;DHT22;6518;50.930;5.344;2024-03-25T13:18:57;13.20;61.50
12901;DHT22;6518;50.930;5.344;2024-03-25T13:21:23;13.20;60.90
12901;DHT22;6518;50.930;5.344;2024-03-25T13:23:49;13.20;60.00
12901;DHT22;6518;50.930;5.344;2024-03-25T13:26:15;13.20;60.20
12901;DHT22;6518;50.930;5.344;2024-03-25T13:28:41;13.30;61.00
12901;DHT22;6518;50.930;5.344;2024-03-25T13:31:09;13.30;60.50
12901;DHT22;6518;50.930;5.344;2024-03-25T13:33:35;13.40;60.50
12901;DHT22;6518;50.930;5.344;2024-03-25T13:36:02;13.50;59.80
12901;DHT22;6518;50.930;5.344;2024-03-25T13:38:28;13.50;59.00
12901;DHT22;6518;50.930;5.344;2024-03-25T13:40:54;13.50;60.40
12901;DHT22;6518;50.930;5.344;2024-03-25T13:43:20;13.60;59.10
12901;DHT22;6518;50.930;5.344;2024-03-25T13:45:47;13.60;59.40
12901;DHT22;6518;50.930;5.344;2024-03-25T13:48:15;13.70;60.00
12901;DHT22;6518;50.930;5.344;2024-03-25T13:50:41;13.70;58.70
12901;DHT22;6518;50.930;5.344;2024-03-25T13:53:07;13.70;58.50
12901;DHT22;6518;50.930;5.344;2024-03-25T13:55:33;13.60;59.70
12901;DHT22;6518;50.930;5.344;2024-03-25T13:57:59;13.60;59.40
12901;DHT22;6518;50.930;5.344;2024-03-25T14:00:25;13.60;59.50
12901;DHT22;6518;50.930;5.344;2024-03-25T14:02:52;13.70;59.20
12901;DHT22;6518;50.930;5.344;2024-03-25T14:05:19;13.80;59.10
12901;DHT22;6518;50.930;5.344;2024-03-25T14:07:45;13.80;59.10
12901;DHT22;6518;50.930;5.344;2024-03-25T14:10:11;13.90;59.60
12901;DHT22;6518;50.930;5.344;2024-03-25T14:12:37;14.00;59.20
12901;DHT22;6518;50.930;5.344;2024-03-25T14:15:04;14.00;58.90
12901;DHT22;6518;50.930;5.344;2024-03-25T14:17:30;14.00;58.70
12901;DHT22;6518;50.930;5.344;2024-03-25T14:19:56;14.00;57.40
12901;DHT22;6518;50.930;5.344;2024-03-25T14:22:24;14.00;57.10
12901;DHT22;6518;50.930;5.344;2024-03-25T14:24:50;13.90;57.70
12901;DHT22;6518;50.930;5.344;2024-03-25T14:27:16;13.90;58.20
12901;DHT22;6518;50.930;5.344;2024-03-25T14:29:42;13.90;58.40
12901;DHT22;6518;50.930;5.344;2024-03-25T14:32:08;13.80;58.00
12901;DHT22;6518;50.930;5.344;2024-03-25T14:34:34;13.70;58.10
12901;DHT22;6518;50.930;5.344;2024-03-25T14:37:00;13.70;58.20
12901;DHT22;6518;50.930;5.344;2024-03-25T14:39:28;13.70;57.40
12901;DHT22;6518;50.930;5.344;2024-03-25T14:41:54;13.70;57.50
12901;DHT22;6518;50.930;5.344;2024-03-25T14:44:20;13.60;57.30
12901;DHT22;6518;50.930;5.344;2024-03-25T14:46:46;13.50;57.20
12901;DHT22;6518;50.930;5.344;2024-03-25T14:49:12;13.50;57.50
12901;DHT22;6518;50.930;5.344;2024-03-25T14:51:39;13.50;58.10
12901;DHT22;6518;50.930;5.344;2024-03-25T14:54:05;13.90;59.40
12901;DHT22;6518;50.930;5.344;2024-03-25T14:56:33;13.60;58.70
12901;DHT22;6518;50.930;5.344;2024-03-25T14:58:59;13.50;58.50
12901;DHT22;6518;50.930;5.344;2024-03-25T15:01:25;13.60;58.90
12901;DHT22;6518;50.930;5.344;2024-03-25T15:03:51;13.60;58.40
12901;DHT22;6518;50.930;5.344;2024-03-25T15:06:17;13.70;58.60
12901;DHT22;6518;50.930;5.344;2024-03-25T15:08:43;13.70;59.00
12901;DHT22;6518;50.930;5.344;2024-03-25T15:11:10;13.70;58.90
12901;DHT22;6518;50.930;5.344;2024-03-25T15:13:37;13.70;58.70
12901;DHT22;6518;50.930;5.344;2024-03-25T15:16:04;13.70;58.40
12901;DHT22;6518;50.930;5.344;2024-03-25T15:18:30;13.80;57.50
12901;DHT22;6518;50.930;5.344;2024-03-25T15:21:00;13.80;57.80
12901;DHT22;6518;50.930;5.344;2024-03-25T15:23:26;13.80;57.60
12901;DHT22;6518;50.930;5.344;2024-03-25T15:25:52;13.80;57.00
12901;DHT22;6518;50.930;5.344;2024-03-25T15:28:19;13.80;57.20
12901;DHT22;6518;50.930;5.344;2024-03-25T15:30:46;13.80;57.30
12901;DHT22;6518;50.930;5.344;2024-03-25T15:33:12;13.80;56.50
12901;DHT22;6518;50.930;5.344;2024-03-25T15:35:38;13.80;56.20
12901;DHT22;6518;50.930;5.344;2024-03-25T15:38:04;13.80;56.20
12901;DHT22;6518;50.930;5.344;2024-03-25T15:40:30;13.70;56.50
12901;DHT22;6518;50.930;5.344;2024-03-25T15:42:57;13.80;57.10
12901;DHT22;6518;50.930;5.344;2024-03-25T15:45:23;13.80;57.30
12901;DHT22;6518;50.930;5.344;2024-03-25T15:47:50;13.80;57.30
12901;DHT22;6518;50.930;5.344;2024-03-25T15:50:17;13.80;56.90
12901;DHT22;6518;50.930;5.344;2024-03-25T15:52:43;13.80;56.70